Strona główna
METAR-TAF:

METAR-TAF

Lotnisko :

Trypolis, Libia

Port lotniczy Mitiga

Szerokość geograficzna: 32-54N, Długość geograficzna: 13-17E, wysokość: 11 m

METAR: brakujący

czas: 13:45 (11:45 UTC)

Prognoza

Raport powstał 6 godziny i 45 minut temu, godzina 05:00 UTC
Prognoza ważna od 18 godzina 06 UTC do 19 godzina 06 UTC
Wiatr 12 kt od północno-północny zachód
Widzialność 10 km lub więcej
Rozproszone chmury na wysokości 2500 ft
Stopniowe zmiany
od 18 godzina 16 UTC do 18 godzina 18 UTC
Wiatr 2 kt z kierunków zmiennych

TAF: HLLM 180500Z 1806/1906 33012KT 9999 SCT025 BECMG 1816/1818 VRB02KT

Obserwacja i prognoza pogody dla ponad 4000 lotnisk (raport METAR i TAF).

Dostępne stacje oznaczono żółtymi i czerwonymi punktami na mapie.

Najedź kursorem aby zobaczyć nazwę stacji.

Kliknij aby zobaczyć obserwacje i prognozy pogody.

Aby zmienić mapę: kliknij na zielony przycisk z czarnym krzyżykiem, aby powiększyć; na zielony przycisk z myślnikiem, aby pomniejszyć; na zielone strzałki, aby przejść do map sąsiednich.


METAR-TAF: